Terminal Aerodrome Forecast
Issued by NWS Twin Cities, MN

Home | Current Version | Previous Version | Text Only | Print | Product List | Glossary Off
Versions: 1 2 3 4 5 6 7 8 9 10 11 12 13 14 15 16 17 18 19

000
FTUS43 KMPX 170700 AAA
TAFSTC
TAF AMD
KSTC 170739Z 1708/1806 35011G20KT P6SM OVC025
     FM170830 35010G17KT P6SM SCT028
     FM170900 35010G17KT P6SM SKC
     FM171500 33009KT P6SM SCT030
     FM172000 33005KT P6SM SCT040
     FM180000 35003KT P6SM SCT250=

USA.gov is the U.S. government's official web portal to all federal, state and local government web resources and services.